createdAt,value
2017-09-29T00:00:14.463Z,100510.65
2017-09-29T00:02:40.693Z,100504.02
2017-09-29T00:05:06.922Z,100495.50
2017-09-29T00:07:33.162Z,100492.05
2017-09-29T00:09:59.400Z,100486.11
2017-09-29T00:12:25.605Z,100490.77
2017-09-29T00:14:51.842Z,100490.70
2017-09-29T00:17:18.075Z,100491.22
2017-09-29T00:19:44.318Z,100493.52
2017-09-29T00:22:10.560Z,100484.94
2017-09-29T00:24:36.779Z,100487.81
2017-09-29T00:27:03.213Z,100491.70
2017-09-29T00:29:29.448Z,100495.52
2017-09-29T00:31:55.679Z,100490.14
2017-09-29T00:34:21.883Z,100494.06
2017-09-29T00:36:48.116Z,100484.84
2017-09-29T00:39:14.354Z,100486.19
2017-09-29T00:41:40.590Z,100489.67
2017-09-29T00:44:06.805Z,100479.38
2017-09-29T00:46:33.031Z,100475.88
2017-09-29T00:48:59.278Z,100478.73
2017-09-29T00:51:25.503Z,100478.63
2017-09-29T00:53:51.727Z,100478.20
2017-09-29T00:56:17.967Z,100478.58
2017-09-29T00:58:44.176Z,100474.55
2017-09-29T01:01:10.418Z,100475.68
2017-09-29T01:03:36.668Z,100470.27
2017-09-29T01:06:02.880Z,100468.68
2017-09-29T01:08:29.113Z,100467.59
2017-09-29T01:10:55.327Z,100468.03
2017-09-29T01:13:21.578Z,100466.21
2017-09-29T01:15:47.830Z,100477.78
2017-09-29T01:18:14.024Z,100478.14
2017-09-29T01:20:40.265Z,100471.04
2017-09-29T01:23:06.485Z,100470.22
2017-09-29T01:25:32.724Z,100470.16
2017-09-29T01:27:58.938Z,100473.78
2017-09-29T01:30:25.183Z,100485.95
2017-09-29T01:32:51.404Z,100476.72
2017-09-29T01:35:17.643Z,100475.88
2017-09-29T01:37:43.849Z,100482.52
2017-09-29T01:40:10.113Z,100485.88
2017-09-29T01:42:36.311Z,100474.35
2017-09-29T01:45:02.554Z,100472.16
2017-09-29T01:47:28.774Z,100471.37
2017-09-29T01:49:55.007Z,100478.94
2017-09-29T01:52:21.242Z,100473.67
2017-09-29T01:54:47.457Z,100467.53
2017-09-29T01:57:13.705Z,100468.73
2017-09-29T01:59:39.932Z,100468.55
2017-09-29T02:02:06.163Z,100475.23
2017-09-29T02:04:32.383Z,100467.50
2017-09-29T02:06:58.621Z,100470.83
2017-09-29T02:09:24.852Z,100466.77
2017-09-29T02:11:51.082Z,100465.49
2017-09-29T02:14:17.300Z,100464.72
2017-09-29T02:16:43.539Z,100464.27
2017-09-29T02:19:09.777Z,100472.83
2017-09-29T02:21:36.020Z,100468.64
2017-09-29T02:24:02.230Z,100462.62
2017-09-29T02:26:28.465Z,100465.84
2017-09-29T02:28:54.687Z,100463.66
2017-09-29T02:31:20.922Z,100461.86
2017-09-29T02:33:47.147Z,100457.95
2017-09-29T02:36:13.383Z,100455.39
2017-09-29T02:38:39.644Z,100461.23
2017-09-29T02:41:05.836Z,100459.28
2017-09-29T02:43:32.077Z,100464.08
2017-09-29T02:45:58.304Z,100465.77
2017-09-29T02:48:24.533Z,100468.00
2017-09-29T02:50:50.710Z,100454.16
2017-09-29T02:53:16.893Z,100453.89
2017-09-29T02:55:43.113Z,100449.99
2017-09-29T02:58:09.339Z,100445.84
2017-09-29T03:00:35.556Z,100450.47
2017-09-29T03:03:01.804Z,100444.89
2017-09-29T03:05:28.032Z,100440.82
2017-09-29T03:07:54.263Z,100444.26
2017-09-29T03:10:20.478Z,100438.39
2017-09-29T03:12:46.715Z,100438.25
2017-09-29T03:15:12.949Z,100435.30
2017-09-29T03:17:39.180Z,100436.28
2017-09-29T03:20:05.405Z,100440.75
2017-09-29T03:22:31.621Z,100438.58
2017-09-29T03:24:57.881Z,100438.23
2017-09-29T03:27:24.100Z,100433.05
2017-09-29T03:29:50.327Z,100437.86
2017-09-29T03:32:16.550Z,100442.36
2017-09-29T03:34:42.783Z,100438.95
2017-09-29T03:37:09.012Z,100437.16
2017-09-29T03:39:35.272Z,100444.31
2017-09-29T03:42:01.500Z,100441.25
2017-09-29T03:44:27.730Z,100441.68
2017-09-29T03:46:53.950Z,100446.19
2017-09-29T03:49:20.171Z,100447.44
2017-09-29T03:51:46.396Z,100449.17
2017-09-29T03:54:12.651Z,100446.25
2017-09-29T03:56:38.841Z,100443.25
2017-09-29T03:59:05.101Z,100448.00
2017-09-29T04:01:31.264Z,100447.89
2017-09-29T04:03:57.445Z,100448.11
2017-09-29T04:06:23.675Z,100443.22
2017-09-29T04:08:49.891Z,100450.27
2017-09-29T04:11:16.119Z,100448.34
2017-09-29T04:13:42.376Z,100447.06
2017-09-29T04:16:08.577Z,100455.62
2017-09-29T04:18:34.827Z,100458.94
2017-09-29T04:21:01.048Z,100456.98
2017-09-29T04:23:27.272Z,100459.52
2017-09-29T04:25:53.432Z,100459.83
2017-09-29T04:28:19.626Z,100461.15
2017-09-29T04:30:45.867Z,100462.95
2017-09-29T04:33:12.093Z,100456.91
2017-09-29T04:35:38.333Z,100459.53
2017-09-29T04:38:04.555Z,100456.30
2017-09-29T04:40:30.778Z,100460.41
2017-09-29T04:42:57.033Z,100456.47
2017-09-29T04:45:23.256Z,100461.52
2017-09-29T04:47:49.501Z,100450.98
2017-09-29T04:50:15.727Z,100463.61
2017-09-29T04:52:41.938Z,100449.59
2017-09-29T04:55:08.165Z,100456.84
2017-09-29T04:57:34.394Z,100448.07
2017-09-29T05:00:00.659Z,100457.80
2017-09-29T05:02:26.858Z,100459.30
2017-09-29T05:04:53.093Z,100459.02
2017-09-29T05:07:19.302Z,100464.37
2017-09-29T05:09:45.539Z,100459.71
2017-09-29T05:12:11.780Z,100461.80
2017-09-29T05:14:38.000Z,100463.48
2017-09-29T05:17:04.248Z,100468.13
2017-09-29T05:19:30.466Z,100459.12
2017-09-29T05:21:56.697Z,100462.62
2017-09-29T05:24:23.040Z,100466.88
2017-09-29T05:26:49.368Z,100472.73
2017-09-29T05:29:15.714Z,100467.64
2017-09-29T05:31:41.925Z,100463.70
2017-09-29T05:34:08.579Z,100463.13
2017-09-29T05:36:35.008Z,100460.31
2017-09-29T05:39:01.339Z,100460.94
2017-09-29T05:41:27.552Z,100459.17
2017-09-29T05:43:53.890Z,100467.06
2017-09-29T05:46:20.145Z,100467.41
2017-09-29T05:48:46.546Z,100470.30
2017-09-29T05:51:12.809Z,100461.00
2017-09-29T05:53:38.981Z,100464.17
2017-09-29T05:56:05.377Z,100462.30
2017-09-29T05:58:31.792Z,100465.58
2017-09-29T06:00:58.117Z,100467.63
2017-09-29T06:03:24.437Z,100465.27
2017-09-29T06:05:50.672Z,100469.82
2017-09-29T06:08:16.909Z,100471.20
2017-09-29T06:10:43.140Z,100468.05
2017-09-29T06:13:09.359Z,100483.56
2017-09-29T06:15:35.704Z,100483.21
2017-09-29T06:18:02.333Z,100483.79
2017-09-29T06:20:28.580Z,100488.74
2017-09-29T06:22:54.893Z,100480.77
2017-09-29T06:25:21.206Z,100481.63
2017-09-29T06:27:47.442Z,100486.11
2017-09-29T06:30:13.678Z,100491.37
2017-09-29T06:32:39.922Z,100488.24
2017-09-29T06:35:06.125Z,100481.31
2017-09-29T06:37:32.391Z,100484.55
2017-09-29T06:39:58.706Z,100484.89
2017-09-29T06:42:24.938Z,100487.46
2017-09-29T06:44:51.199Z,100490.36
2017-09-29T06:47:17.384Z,100489.80
2017-09-29T06:49:43.617Z,100489.70
2017-09-29T06:52:09.837Z,100486.12
2017-09-29T06:54:36.097Z,100489.18
2017-09-29T06:57:02.425Z,100491.49
2017-09-29T06:59:28.844Z,100494.86
2017-09-29T07:01:55.087Z,100496.91
2017-09-29T07:04:21.379Z,100497.61
2017-09-29T07:06:47.669Z,100494.41
2017-09-29T07:09:13.876Z,100489.73
2017-09-29T07:11:40.110Z,100494.79
2017-09-29T07:14:06.255Z,100496.05
2017-09-29T07:16:32.685Z,100493.91
2017-09-29T07:18:58.881Z,100486.72
2017-09-29T07:21:25.129Z,100488.50
2017-09-29T07:23:51.468Z,100488.69
2017-09-29T07:26:17.697Z,100478.52
2017-09-29T07:28:44.021Z,100483.82
2017-09-29T07:31:10.256Z,100481.80
2017-09-29T07:33:36.481Z,100480.34
2017-09-29T07:36:02.730Z,100478.34
2017-09-29T07:38:29.029Z,100477.09
2017-09-29T07:40:55.282Z,100468.80
2017-09-29T07:43:21.841Z,100465.80
2017-09-29T07:45:48.208Z,100465.25
2017-09-29T07:48:14.483Z,100469.66
2017-09-29T07:50:40.726Z,100465.03
2017-09-29T07:53:06.931Z,100462.77
2017-09-29T07:55:33.156Z,100458.33
2017-09-29T07:57:59.479Z,100454.25
2017-09-29T08:00:25.721Z,100452.02
2017-09-29T08:02:52.066Z,100452.79
2017-09-29T08:05:18.289Z,100450.53
2017-09-29T08:07:45.129Z,100447.97
2017-09-29T08:10:11.667Z,100449.89
2017-09-29T08:12:37.959Z,100446.28
2017-09-29T08:15:04.222Z,100444.63
2017-09-29T08:17:30.445Z,100438.56
2017-09-29T08:19:56.713Z,100439.30
2017-09-29T08:22:23.216Z,100434.52
2017-09-29T08:24:49.416Z,100436.30
2017-09-29T08:27:15.634Z,100434.95
2017-09-29T08:29:41.847Z,100435.34
2017-09-29T08:32:08.082Z,100434.52
2017-09-29T08:34:34.283Z,100441.95
2017-09-29T08:37:00.490Z,100439.28
2017-09-29T08:39:26.657Z,100433.06
2017-09-29T08:41:52.801Z,100429.27
2017-09-29T08:44:19.081Z,100420.13
2017-09-29T08:46:45.272Z,100411.85
2017-09-29T08:49:11.551Z,100416.97
2017-09-29T08:51:40.913Z,100424.59
2017-09-29T08:54:07.185Z,100429.61
2017-09-29T08:56:33.635Z,100422.28
2017-09-29T08:58:59.858Z,100422.19
2017-09-29T09:01:26.082Z,100422.64
2017-09-29T09:03:52.250Z,100418.84
2017-09-29T09:06:18.439Z,100424.17
2017-09-29T09:08:44.769Z,100426.09
2017-09-29T09:11:10.986Z,100424.87
2017-09-29T09:13:37.307Z,100425.92
2017-09-29T09:16:03.558Z,100422.88
2017-09-29T09:18:29.785Z,100416.08
2017-09-29T09:20:56.010Z,100415.84
2017-09-29T09:23:22.208Z,100416.34
2017-09-29T09:25:48.474Z,100411.58
2017-09-29T09:28:15.411Z,100405.05
2017-09-29T09:30:41.659Z,100405.12
2017-09-29T09:33:07.967Z,100406.22
2017-09-29T09:35:34.198Z,100403.56
2017-09-29T09:38:00.551Z,100400.98
2017-09-29T09:40:26.878Z,100399.35
2017-09-29T09:42:53.156Z,100396.30
2017-09-29T09:45:19.553Z,100396.98
2017-09-29T09:47:45.788Z,100396.55
2017-09-29T09:50:12.193Z,100385.03
2017-09-29T09:52:38.431Z,100391.00
2017-09-29T09:55:04.669Z,100389.84
2017-09-29T09:57:30.882Z,100380.29
2017-09-29T09:59:57.112Z,100377.36
2017-09-29T10:02:23.379Z,100367.02
2017-09-29T10:04:49.715Z,100369.37
2017-09-29T10:07:15.986Z,100367.29
2017-09-29T10:09:42.264Z,100372.86
2017-09-29T10:12:08.704Z,100367.72
2017-09-29T10:14:35.130Z,100366.95
2017-09-29T10:17:01.466Z,100361.34
2017-09-29T10:19:27.694Z,100360.72
2017-09-29T10:21:53.942Z,100363.63
2017-09-29T10:24:20.250Z,100352.81
2017-09-29T10:26:46.452Z,100349.16
2017-09-29T10:29:12.685Z,100340.17
2017-09-29T10:31:39.031Z,100338.08
2017-09-29T10:34:05.353Z,100334.02
2017-09-29T10:36:31.752Z,100329.31
2017-09-29T10:38:58.035Z,100333.14
2017-09-29T10:41:24.260Z,100324.83
2017-09-29T10:43:50.514Z,100325.22
2017-09-29T10:46:16.837Z,100324.16
2017-09-29T10:48:43.090Z,100317.20
2017-09-29T10:51:09.370Z,100314.06
2017-09-29T10:53:35.612Z,100314.94
2017-09-29T10:56:01.935Z,100302.21
2017-09-29T10:58:28.208Z,100298.01
2017-09-29T11:00:54.498Z,100298.91
2017-09-29T11:03:20.936Z,100301.89
2017-09-29T11:05:47.289Z,100294.40
2017-09-29T11:08:13.615Z,100299.36
2017-09-29T11:10:40.352Z,100292.67
2017-09-29T11:13:06.577Z,100284.48
2017-09-29T11:15:32.805Z,100283.17
2017-09-29T11:17:59.028Z,100281.75
2017-09-29T11:20:25.360Z,100276.45
2017-09-29T11:22:51.919Z,100278.96
2017-09-29T11:25:18.133Z,100270.67
2017-09-29T11:27:44.369Z,100275.91
2017-09-29T11:30:10.597Z,100270.51
2017-09-29T11:32:36.884Z,100270.63
2017-09-29T11:35:03.314Z,100272.09
2017-09-29T11:37:29.680Z,100270.38
2017-09-29T11:39:56.009Z,100269.14
2017-09-29T11:42:22.353Z,100271.11
2017-09-29T11:44:48.577Z,100272.00
2017-09-29T11:47:14.823Z,100271.02
2017-09-29T11:49:41.468Z,100269.76
2017-09-29T11:52:07.655Z,100269.65
2017-09-29T11:54:33.919Z,100266.63
2017-09-29T11:57:00.330Z,100263.98
2017-09-29T11:59:27.116Z,100264.23
2017-09-29T12:01:53.512Z,100261.92
2017-09-29T12:04:19.911Z,100265.47
2017-09-29T12:06:46.109Z,100256.71
2017-09-29T12:09:12.373Z,100251.14
2017-09-29T12:11:38.607Z,100254.80
2017-09-29T12:14:04.980Z,100252.77
2017-09-29T12:16:31.324Z,100256.46
2017-09-29T12:18:57.655Z,100256.28
2017-09-29T12:21:23.882Z,100262.03
2017-09-29T12:23:50.257Z,100252.01
2017-09-29T12:26:16.546Z,100249.78
2017-09-29T12:28:42.870Z,100246.33
2017-09-29T12:31:09.199Z,100248.50
2017-09-29T12:33:35.417Z,100248.45
2017-09-29T12:36:01.968Z,100246.64
2017-09-29T12:38:28.227Z,100238.70
2017-09-29T12:40:54.395Z,100239.11
2017-09-29T12:43:20.593Z,100240.47
2017-09-29T12:45:46.791Z,100227.61
2017-09-29T12:48:13.017Z,100230.34
2017-09-29T12:50:39.203Z,100227.02
2017-09-29T12:53:05.529Z,100228.52
2017-09-29T12:55:31.776Z,100230.11
2017-09-29T12:57:57.978Z,100222.38
2017-09-29T13:00:24.218Z,100219.63
2017-09-29T13:02:50.460Z,100219.44
2017-09-29T13:05:16.736Z,100215.95
2017-09-29T13:07:43.006Z,100210.56
2017-09-29T13:10:09.339Z,100218.06
2017-09-29T13:12:35.615Z,100209.55
2017-09-29T13:15:01.829Z,100207.59
2017-09-29T13:17:28.155Z,100208.95
2017-09-29T13:19:54.298Z,100200.30
2017-09-29T13:22:20.546Z,100203.11
2017-09-29T13:24:47.007Z,100202.16
2017-09-29T13:27:13.212Z,100208.72
2017-09-29T13:29:39.386Z,100206.28
2017-09-29T13:32:05.680Z,100205.14
2017-09-29T13:34:32.237Z,100203.38
2017-09-29T13:36:58.983Z,100200.98
2017-09-29T13:39:25.382Z,100205.40
2017-09-29T13:41:51.621Z,100191.55
2017-09-29T13:44:17.791Z,100193.09
2017-09-29T13:46:44.087Z,100194.36
2017-09-29T13:49:10.518Z,100192.27
2017-09-29T13:51:36.886Z,100199.47
2017-09-29T13:54:03.185Z,100202.68
2017-09-29T13:56:29.500Z,100189.98
2017-09-29T13:58:55.855Z,100204.11
2017-09-29T14:01:22.163Z,100194.98
2017-09-29T14:03:48.604Z,100192.48
2017-09-29T14:06:14.942Z,100198.68
2017-09-29T14:08:41.280Z,100203.50
2017-09-29T14:11:07.710Z,100194.70
2017-09-29T14:13:34.035Z,100194.96
2017-09-29T14:16:00.307Z,100191.55
2017-09-29T14:18:27.118Z,100194.91
2017-09-29T14:20:53.325Z,100194.79
2017-09-29T14:23:19.977Z,100191.59
2017-09-29T14:25:46.322Z,100197.61
2017-09-29T14:28:12.544Z,100193.06
2017-09-29T14:30:38.903Z,100187.54
2017-09-29T14:33:05.299Z,100182.80
2017-09-29T14:35:31.535Z,100187.68
2017-09-29T14:37:57.883Z,100182.27
2017-09-29T14:40:24.410Z,100186.28
2017-09-29T14:42:51.511Z,100199.02
2017-09-29T14:45:18.203Z,100190.73
2017-09-29T14:47:51.116Z,100195.70
2017-09-29T14:50:21.111Z,100189.41
2017-09-29T14:55:27.539Z,100193.35
2017-09-29T14:57:54.613Z,100194.68
2017-09-29T15:00:21.344Z,100196.70
2017-09-29T15:02:48.129Z,100200.06
2017-09-29T15:05:14.649Z,100206.82
2017-09-29T15:07:41.012Z,100210.21
2017-09-29T15:10:09.288Z,100204.61
2017-09-29T15:12:36.881Z,100210.74
2017-09-29T15:15:04.311Z,100206.86
2017-09-29T15:17:31.079Z,100208.88
2017-09-29T15:19:57.391Z,100204.21
2017-09-29T15:22:23.960Z,100206.57
2017-09-29T15:24:51.771Z,100198.59
2017-09-29T15:27:18.024Z,100201.38
2017-09-29T15:29:44.459Z,100200.09
2017-09-29T15:32:10.891Z,100203.27
2017-09-29T15:34:37.226Z,100206.42
2017-09-29T15:37:03.548Z,100211.76
2017-09-29T15:39:29.885Z,100207.05
2017-09-29T15:41:56.217Z,100207.61
2017-09-29T15:44:22.560Z,100211.48
2017-09-29T15:46:49.291Z,100209.27
2017-09-29T15:49:16.108Z,100203.85
2017-09-29T15:51:42.464Z,100204.93
2017-09-29T15:54:08.846Z,100209.92
2017-09-29T15:56:35.606Z,100208.62
2017-09-29T15:59:04.022Z,100210.13
2017-09-29T16:01:39.777Z,100213.45
2017-09-29T16:04:06.780Z,100217.21
2017-09-29T16:06:33.576Z,100222.02
2017-09-29T16:09:00.091Z,100210.37
2017-09-29T16:11:27.101Z,100216.44
2017-09-29T16:13:53.471Z,100218.69
2017-09-29T16:16:21.727Z,100217.20
2017-09-29T16:18:48.179Z,100209.63
2017-09-29T16:21:14.699Z,100212.97
2017-09-29T16:23:49.186Z,100211.02
2017-09-29T16:26:15.689Z,100212.04
2017-09-29T16:28:51.737Z,100209.08
2017-09-29T16:31:19.032Z,100214.75
2017-09-29T16:33:45.502Z,100212.88
2017-09-29T16:36:22.868Z,100218.61
2017-09-29T16:38:49.440Z,100213.16
2017-09-29T16:41:24.200Z,100213.66
2017-09-29T16:43:51.634Z,100214.16
2017-09-29T16:46:18.195Z,100214.17
2017-09-29T17:00:56.655Z,100217.64
2017-09-29T17:03:25.879Z,100220.11
2017-09-29T17:05:52.561Z,100222.63
2017-09-29T17:08:20.111Z,100215.41
2017-09-29T17:10:47.819Z,100219.58
2017-09-29T17:13:15.290Z,100214.14
2017-09-29T17:15:41.989Z,100209.86
2017-09-29T17:18:08.320Z,100218.50
2017-09-29T17:20:34.667Z,100219.45
2017-09-29T17:23:08.893Z,100218.56
2017-09-29T17:25:35.378Z,100220.47
2017-09-29T17:28:02.968Z,100220.90
2017-09-29T17:30:29.380Z,100218.28
2017-09-29T17:32:55.847Z,100217.70
2017-09-29T17:35:22.556Z,100222.75
2017-09-29T17:37:48.884Z,100223.96
2017-09-29T17:40:15.255Z,100220.88
2017-09-29T17:42:41.673Z,100224.42
2017-09-29T17:45:08.114Z,100222.02
2017-09-29T17:47:34.717Z,100223.45
2017-09-29T17:50:01.153Z,100228.23
2017-09-29T17:52:27.701Z,100226.52
2017-09-29T17:54:54.117Z,100220.21
2017-09-29T17:57:21.495Z,100225.62
2017-09-29T17:59:47.899Z,100228.70
2017-09-29T18:02:14.431Z,100227.41
2017-09-29T18:04:41.785Z,100233.67
2017-09-29T18:07:08.063Z,100234.11
2017-09-29T18:09:34.420Z,100236.92
2017-09-29T18:12:00.734Z,100232.09
2017-09-29T18:14:27.097Z,100234.63
2017-09-29T18:16:53.479Z,100231.92
2017-09-29T18:19:20.289Z,100238.73
2017-09-29T18:21:46.499Z,100238.08
2017-09-29T18:24:14.068Z,100236.95
2017-09-29T18:26:40.604Z,100235.41
2017-09-29T18:29:14.650Z,100234.45
2017-09-29T18:31:40.986Z,100234.45
2017-09-29T18:34:07.365Z,100234.26
2017-09-29T18:43:17.275Z,100241.41
2017-09-29T18:45:44.288Z,100238.88
2017-09-29T18:48:10.808Z,100244.82
2017-09-29T18:50:41.686Z,100243.77
2017-09-29T18:53:08.088Z,100241.08
2017-09-29T18:55:37.838Z,100247.52
2017-09-29T18:58:04.114Z,100247.89
2017-09-29T19:00:31.090Z,100245.92
2017-09-29T19:02:57.813Z,100255.41
2017-09-29T19:05:24.138Z,100255.56
2017-09-29T19:07:50.590Z,100250.66
2017-09-29T19:10:16.940Z,100252.89
2017-09-29T19:12:43.364Z,100251.72
2017-09-29T19:15:09.786Z,100247.12
2017-09-29T19:17:36.226Z,100246.77
2017-09-29T19:20:02.978Z,100250.91
2017-09-29T19:22:29.691Z,100255.88
2017-09-29T19:24:56.312Z,100248.63
2017-09-29T19:27:22.883Z,100252.11
2017-09-29T19:29:49.294Z,100247.36
2017-09-29T19:32:15.981Z,100249.24
2017-09-29T19:34:42.331Z,100253.61
2017-09-29T19:37:09.184Z,100253.45
2017-09-29T19:39:35.615Z,100249.41
2017-09-29T19:42:02.213Z,100252.83
2017-09-29T19:44:28.412Z,100248.77
2017-09-29T19:46:54.775Z,100250.70
2017-09-29T19:49:21.181Z,100246.36
2017-09-29T19:51:48.374Z,100250.13
2017-09-29T19:54:15.156Z,100245.28
2017-09-29T19:56:41.998Z,100246.63
2017-09-29T19:59:10.196Z,100244.69
2017-09-29T20:01:36.971Z,100239.67
2017-09-29T20:04:11.127Z,100244.88
2017-09-29T20:06:41.273Z,100245.84
2017-09-29T20:09:10.435Z,100242.32
2017-09-29T20:11:36.918Z,100241.19
2017-09-29T20:14:03.429Z,100242.30
2017-09-29T20:16:30.774Z,100232.05
2017-09-29T20:18:59.164Z,100233.16
2017-09-29T20:21:25.567Z,100233.37
2017-09-29T20:26:22.418Z,100233.97
2017-09-29T20:28:49.197Z,100235.64
2017-09-29T20:31:22.580Z,100208.09
2017-09-29T20:33:56.068Z,100242.40
2017-09-29T20:43:04.893Z,100229.47
2017-09-29T20:45:32.993Z,100231.76
2017-09-29T20:47:59.638Z,100224.53
2017-09-29T20:50:29.618Z,100225.61
2017-09-29T20:52:56.032Z,100221.54
2017-09-29T20:55:22.654Z,100215.53
2017-09-29T20:57:48.972Z,100220.81
2017-09-29T21:00:15.275Z,100220.95
2017-09-29T21:02:41.599Z,100215.50
2017-09-29T21:05:07.988Z,100220.78
2017-09-29T21:07:34.478Z,100220.25
2017-09-29T21:10:01.017Z,100218.93
2017-09-29T21:12:27.321Z,100212.24
2017-09-29T21:14:53.755Z,100208.94
2017-09-29T21:17:20.097Z,100210.52
2017-09-29T21:19:46.544Z,100201.66
2017-09-29T21:22:13.034Z,100204.59
2017-09-29T21:24:39.447Z,100207.39
2017-09-29T21:27:06.624Z,100198.80
2017-09-29T21:32:03.870Z,100191.45
2017-09-29T21:34:31.118Z,100190.34
2017-09-29T21:36:57.455Z,100194.28
2017-09-29T21:39:23.871Z,100187.70
2017-09-29T21:41:50.431Z,100187.38
2017-09-29T21:44:17.277Z,100188.54
2017-09-29T21:46:43.703Z,100177.59
2017-09-29T21:49:10.102Z,100176.52
2017-09-29T21:51:36.448Z,100183.03
2017-09-29T21:54:03.068Z,100174.11
2017-09-29T21:56:30.373Z,100174.56
2017-09-29T21:58:56.805Z,100168.73
2017-09-29T22:01:23.233Z,100177.31
2017-09-29T22:03:49.564Z,100171.28
2017-09-29T22:06:15.879Z,100173.13
2017-09-29T22:08:42.181Z,100179.01
2017-09-29T22:11:08.621Z,100173.61
2017-09-29T22:13:34.961Z,100181.50
2017-09-29T22:16:01.479Z,100175.26
2017-09-29T22:18:27.909Z,100179.55
2017-09-29T22:20:54.348Z,100178.38
2017-09-29T22:23:20.690Z,100166.59
2017-09-29T22:25:47.417Z,100171.84
2017-09-29T22:28:13.752Z,100167.37
2017-09-29T22:30:40.195Z,100170.43
2017-09-29T22:33:07.034Z,100170.55
2017-09-29T22:35:33.588Z,100167.72
2017-09-29T22:38:00.348Z,100166.70
2017-09-29T22:40:26.661Z,100166.65
2017-09-29T22:42:53.087Z,100169.52
2017-09-29T22:45:19.520Z,100163.33
2017-09-29T22:47:45.950Z,100159.37
2017-09-29T22:50:12.269Z,100158.30
2017-09-29T22:52:38.517Z,100155.25
2017-09-29T22:55:04.951Z,100154.03
2017-09-29T22:57:31.886Z,100161.12
2017-09-29T22:59:58.125Z,100154.53
2017-09-29T23:02:24.447Z,100151.52
2017-09-29T23:04:50.904Z,100149.48
2017-09-29T23:07:17.307Z,100159.58
2017-09-29T23:09:43.554Z,100158.00
2017-09-29T23:12:09.772Z,100157.24
2017-09-29T23:14:36.096Z,100158.56
2017-09-29T23:17:03.363Z,100157.88
2017-09-29T23:19:30.238Z,100154.03
2017-09-29T23:21:56.871Z,100163.72
2017-09-29T23:24:23.183Z,100157.14
2017-09-29T23:26:49.430Z,100160.16
2017-09-29T23:29:15.733Z,100162.44
2017-09-29T23:31:42.294Z,100155.02
2017-09-29T23:34:08.716Z,100152.28
2017-09-29T23:36:34.979Z,100154.00
2017-09-29T23:39:01.191Z,100144.20
2017-09-29T23:41:27.501Z,100145.95
2017-09-29T23:43:53.832Z,100141.89
2017-09-29T23:46:20.188Z,100141.25
2017-09-29T23:48:46.595Z,100140.38
2017-09-29T23:51:12.943Z,100141.16
2017-09-29T23:53:39.278Z,100147.30
2017-09-29T23:56:05.613Z,100143.77
2017-09-29T23:58:32.053Z,100141.37
